Fangst — LK6971 — position and weather

sailwx.info

Track history (hours):
 
Tides and Currents Weather Stations Pressure Air Temp Water Temp Dewpoint Dewpoint Depression Visibility Wind Speed Wind Dir Waves Ship Positions

Oceanographic research ship Fangst (Norway)

Detailed information on ship capabilities available from University of Delaware's Ocean Information Center and ARCUS's ALIAS (Arctic Logistics Information and Support) project.

Last reported at 2017-Oct-19 16:30 UTC. Time now 2017-Oct-19 16:34 UTC.
Position N 69°39' E 018°58'.

Length 14 m; draft 2.5 m.

Type: Fishing. MMSI: 257076840.

Date/timePositionNaut miles runAvg speedWind from/ knotsBaromVisibWave heightAir tempDewpointWater temp
2017-Oct-19 16:30N 69°39' E 018°58'0 0.0
2017-Oct-19 15:59N 69°39' E 018°58'0 0.0
2017-Oct-19 15:30N 69°39' E 018°58'0 0.0
2017-Oct-19 14:59N 69°39' E 018°58'0 0.0
2017-Oct-19 14:30N 69°39' E 018°58'0 0.0
2017-Oct-19 14:00N 69°39' E 018°58'0 1.0
2017-Oct-19 13:30N 69°39' E 018°59'3 6.5
2017-Oct-19 13:00N 69°42' E 019°03'3 6.4
2017-Oct-19 12:30N 69°45' E 019°07'3 6.3
2017-Oct-19 12:00N 69°47' E 019°15'3 6.5
2017-Oct-19 11:29N 69°48' E 019°23'2 3.8
2017-Oct-19 11:00N 69°50' E 019°27'1 2.8
2017-Oct-19 10:30N 69°51' E 019°24'4 7.4
2017-Oct-19 10:00N 69°54' E 019°29'4 7.2
2017-Oct-19 09:30N 69°57' E 019°35'3 7.0
2017-Oct-19 09:00N 69°59' E 019°42'3 6.4
2017-Oct-19 08:30N 70°01' E 019°49'3 6.7
2017-Oct-19 08:00N 70°03' E 019°58'3 6.6
2017-Oct-19 07:30N 70°03' E 020°07'3 6.4
2017-Oct-19 06:59N 70°03' E 020°17'3 6.5
2017-Oct-19 06:30N 70°03' E 020°26'2 3.5
2017-Oct-19 06:00N 70°04' E 020°30'0 0.0
2017-Oct-19 05:30N 70°04' E 020°30'0 0.0
2017-Oct-19 05:00N 70°04' E 020°30'0 0.0
2017-Oct-19 04:30N 70°04' E 020°30'0 0.0
2017-Oct-19 04:00N 70°04' E 020°30'0 0.0
2017-Oct-19 03:30N 70°04' E 020°30'0 0.0
2017-Oct-19 03:00N 70°04' E 020°30'0 0.0
2017-Oct-19 02:30N 70°04' E 020°30'0 0.0
2017-Oct-19 02:00N 70°04' E 020°30'0 0.0
2017-Oct-19 01:30N 70°04' E 020°30'0 0.0
2017-Oct-19 01:00N 70°04' E 020°30'0 0.0
2017-Oct-19 00:30N 70°04' E 020°30'0 0.0
2017-Oct-19 00:00N 70°04' E 020°30'0 0.0
2017-Oct-18 23:30N 70°04' E 020°30'0 0.0
2017-Oct-18 23:00N 70°04' E 020°30'0 0.0
2017-Oct-18 22:29N 70°04' E 020°30'0 0.0
2017-Oct-18 22:00N 70°04' E 020°30'0 0.0
2017-Oct-18 21:30N 70°04' E 020°30'0 0.0
2017-Oct-18 21:00N 70°04' E 020°30'0 0.0
2017-Oct-18 20:30N 70°04' E 020°30'0 0.0
2017-Oct-18 20:00N 70°04' E 020°30'0 0.0
2017-Oct-18 19:30N 70°04' E 020°30'0 0.0
2017-Oct-18 18:59N 70°04' E 020°30'0 0.3
2017-Oct-18 18:30N 70°04' E 020°30'3 5.5
2017-Oct-18 18:00N 70°02' E 020°35'3 6.8
2017-Oct-18 17:30N 70°02' E 020°44'3 6.9
2017-Oct-18 17:00N 70°04' E 020°54'3 6.4
2017-Oct-18 16:30N 70°04' E 021°03'3 6.6
2017-Oct-18 16:00N 70°05' E 021°12'3 6.6
2017-Oct-18 15:30N 70°06' E 021°22'1 1.0
2017-Oct-18 15:00N 70°06' E 021°22'0 0.1
2017-Oct-18 14:00N 70°06' E 021°22'1 1.6
2017-Oct-18 13:30N 70°07' E 021°22'3 6.7
2017-Oct-18 13:00N 70°09' E 021°15'3 6.3
2017-Oct-18 12:30N 70°12' E 021°08'3 5.5
2017-Oct-18 12:00N 70°14' E 021°10'3 6.2
2017-Oct-18 11:29N 70°16' E 021°18'3 6.2
2017-Oct-18 11:00N 70°18' E 021°25'3 6.1
2017-Oct-18 10:30N 70°20' E 021°32'3 5.8
2017-Oct-18 10:00N 70°22' E 021°38'3 5.4
2017-Oct-18 09:30N 70°24' E 021°44'3 6.2
2017-Oct-18 09:00N 70°22' E 021°51'3 5.7
2017-Oct-18 08:30N 70°20' E 021°56'2 4.1
2017-Oct-18 08:00N 70°18' E 021°51'3 6.4
2017-Oct-18 07:30N 70°16' E 021°45'1 2.6
2017-Oct-18 07:00N 70°15' E 021°43'1 2.6
2017-Oct-18 06:30N 70°15' E 021°47'0 0.4
2017-Oct-18 06:00N 70°15' E 021°47'0 0.0
2017-Oct-18 05:30N 70°15' E 021°47'0 0.0
2017-Oct-18 05:00N 70°15' E 021°47'0 0.0
2017-Oct-18 04:29N 70°15' E 021°47'0 0.0
2017-Oct-18 04:00N 70°15' E 021°47'0 0.0
2017-Oct-18 03:30N 70°15' E 021°47'0 0.0
2017-Oct-18 03:00N 70°15' E 021°47'0 0.0
2017-Oct-18 02:29N 70°15' E 021°47'0 0.0
2017-Oct-18 02:00N 70°15' E 021°47'0 0.0
2017-Oct-18 01:30N 70°15' E 021°47'0 0.0
2017-Oct-18 01:00N 70°15' E 021°47'0 0.0
2017-Oct-18 00:30N 70°15' E 021°47'0 0.0
2017-Oct-18 00:00N 70°15' E 021°47'0 0.0
2017-Oct-17 23:29N 70°15' E 021°47'0 0.0
2017-Oct-17 22:59N 70°15' E 021°47'0 0.0
2017-Oct-17 22:30N 70°15' E 021°47'0 0.0
2017-Oct-17 22:00N 70°15' E 021°47'0 0.0
2017-Oct-17 21:30N 70°15' E 021°47'0 0.0
2017-Oct-17 21:00N 70°15' E 021°47'0 0.0
2017-Oct-17 20:30N 70°15' E 021°47'0 0.0
2017-Oct-17 20:00N 70°15' E 021°47'0 0.0
2017-Oct-17 19:30N 70°15' E 021°47'0 0.0
2017-Oct-17 18:59N 70°15' E 021°47'0 0.0
2017-Oct-17 18:30N 70°15' E 021°47'0 0.0
2017-Oct-17 18:00N 70°15' E 021°47'0 0.0
2017-Oct-17 17:30N 70°15' E 021°47'2 3.3
2017-Oct-17 17:00N 70°17' E 021°47'3 6.9
2017-Oct-17 16:30N 70°20' E 021°53'3 6.5
2017-Oct-17 16:00N 70°22' E 021°59'3 6.4
2017-Oct-17 15:30N 70°24' E 022°07'3 6.3
2017-Oct-17 15:00N 70°26' E 022°14'3 6.7
2017-Oct-17 14:30N 70°28' E 022°22'1 2.9
2017-Oct-17 14:00N 70°29' E 022°26'1 1.8
2017-Oct-17 13:30N 70°29' E 022°28'0 0.5
2017-Oct-17 13:00N 70°30' E 022°28'0 0.3
2017-Oct-17 12:30N 70°29' E 022°28'0 0.4
2017-Oct-17 12:00N 70°30' E 022°29'3 6.1
2017-Oct-17 11:30N 70°30' E 022°38'3 6.2
2017-Oct-17 11:00N 70°30' E 022°47'3 5.5
2017-Oct-17 10:30N 70°31' E 022°54'2 3.4
2017-Oct-17 10:00N 70°33' E 022°58'1 1.1
2017-Oct-17 09:30N 70°33' E 022°59'0 0.6
2017-Oct-17 09:00N 70°33' E 022°58'0 0.5
2017-Oct-17 08:30N 70°33' E 022°59'0 0.4
2017-Oct-17 08:00N 70°33' E 022°58'1 2.2
2017-Oct-17 07:30N 70°33' E 023°01'3 6.2
2017-Oct-17 07:00N 70°36' E 023°07'3 6.6
2017-Oct-17 06:30N 70°38' E 023°15'3 6.5
2017-Oct-17 05:59N 70°39' E 023°25'3 6.4
2017-Oct-17 05:30N 70°39' E 023°34'2 5.0
2017-Oct-17 05:00N 70°40' E 023°41'0 0.0
2017-Oct-17 04:30N 70°40' E 023°41'0 0.0
2017-Oct-17 04:00N 70°40' E 023°41'0 0.0
2017-Oct-17 03:30N 70°40' E 023°41'0 0.0
2017-Oct-17 03:00N 70°40' E 023°41'0 0.0
2017-Oct-17 02:30N 70°40' E 023°41'0 0.0
2017-Oct-17 02:00N 70°40' E 023°41'0 0.0
2017-Oct-17 01:30N 70°40' E 023°41'0 0.0
2017-Oct-17 01:00N 70°40' E 023°41'0 0.0
2017-Oct-17 00:30N 70°40' E 023°41'0 0.0
2017-Oct-17 00:00N 70°40' E 023°41'0 0.0
2017-Oct-16 23:30N 70°40' E 023°41'0 0.0
2017-Oct-16 23:00N 70°40' E 023°41'0 0.0
2017-Oct-16 22:30N 70°40' E 023°41'0 0.0
2017-Oct-16 22:00N 70°40' E 023°41'0 0.0
2017-Oct-16 21:30N 70°40' E 023°41'0 0.0
2017-Oct-16 21:00N 70°40' E 023°41'0 0.0
2017-Oct-16 20:30N 70°40' E 023°41'0 0.0
2017-Oct-16 20:00N 70°40' E 023°41'0 0.0
2017-Oct-16 19:30N 70°40' E 023°41'0 0.0
2017-Oct-16 19:00N 70°40' E 023°41'0 0.0
2017-Oct-16 18:30N 70°40' E 023°41'0 0.0
2017-Oct-16 18:00N 70°40' E 023°41'0 0.0
2017-Oct-16 17:30N 70°40' E 023°41'0 0.0
2017-Oct-16 17:00N 70°40' E 023°41'0 0.0
2017-Oct-16 16:30N 70°40' E 023°41'0 0.0
2017-Oct-16 16:00N 70°40' E 023°41'0 0.9
2017-Oct-16 15:30N 70°40' E 023°40'3 6.6
2017-Oct-16 15:00N 70°37' E 023°36'4 7.0
2017-Oct-16 14:30N 70°33' E 023°39'3 2.8
2017-Oct-16 13:30N 70°31' E 023°44'2 4.2
2017-Oct-16 13:00N 70°30' E 023°50'3 6.1
2017-Oct-16 12:28N 70°31' E 023°59'2 3.9
2017-Oct-16 11:59N 70°31' E 024°05'0 0.4
2017-Oct-16 11:30N 70°31' E 024°04'1 2.9
2017-Oct-16 11:00N 70°32' E 024°05'2 3.2
2017-Oct-16 10:29N 70°34' E 024°05'1 3.0
2017-Oct-16 10:00N 70°35' E 024°07'0 0.5
2017-Oct-16 09:30N 70°35' E 024°07'0 0.2
2017-Oct-16 09:00N 70°35' E 024°07'0 0.4
2017-Oct-16 08:31N 70°35' E 024°07'0 0.5
2017-Oct-16 08:00N 70°35' E 024°07'0 0.5
2017-Oct-16 07:30N 70°35' E 024°07'0 0.4
2017-Oct-16 07:00N 70°35' E 024°07'3 6.8
2017-Oct-16 06:30N 70°32' E 024°02'2 4.4
2017-Oct-16 06:00N 70°30' E 023°59'0 0.0
2017-Oct-16 05:30N 70°30' E 023°59'0 0.0
2017-Oct-16 05:00N 70°30' E 023°59'0 0.0
2017-Oct-16 04:29N 70°30' E 023°59'0 0.0
2017-Oct-16 03:59N 70°30' E 023°59'0 0.0
2017-Oct-16 03:30N 70°30' E 023°59'0 0.0
2017-Oct-16 03:00N 70°30' E 023°59'0 0.0
2017-Oct-16 02:30N 70°30' E 023°59'0 0.0
2017-Oct-16 02:00N 70°30' E 023°59'0 0.0
2017-Oct-16 01:29N 70°30' E 023°59'0 0.0
2017-Oct-16 01:00N 70°30' E 023°59'0 0.0
2017-Oct-16 00:30N 70°30' E 023°59'0 0.0
2017-Oct-16 00:00N 70°30' E 023°59'0 0.0
2017-Oct-15 23:30N 70°30' E 023°59'0 0.0
2017-Oct-15 23:00N 70°30' E 023°59'0 0.0
2017-Oct-15 22:30N 70°30' E 023°59'0 0.0
2017-Oct-15 22:00N 70°30' E 023°59'0 0.0
2017-Oct-15 21:30N 70°30' E 023°59'0 0.0
2017-Oct-15 21:00N 70°30' E 023°59'0 0.0
2017-Oct-15 20:30N 70°30' E 023°59'0 0.0
2017-Oct-15 20:00N 70°30' E 023°59'0 0.0
2017-Oct-15 19:30N 70°30' E 023°59'0 0.0
2017-Oct-15 19:00N 70°30' E 023°59'0 0.0
2017-Oct-15 18:30N 70°30' E 023°59'0 0.0
2017-Oct-15 18:00N 70°30' E 023°59'0 0.0
2017-Oct-15 17:30N 70°30' E 023°59'0 0.0
2017-Oct-15 17:00N 70°30' E 023°59'0 0.0
2017-Oct-15 16:30N 70°30' E 023°59'0 0.0
2017-Oct-15 16:00N 70°30' E 023°59'0 0.0
2017-Oct-15 15:30N 70°30' E 023°59'0 0.0
2017-Oct-15 14:59N 70°30' E 023°59'0 0.1
2017-Oct-15 14:00N 70°30' E 023°59'3 6.3
2017-Oct-15 13:30N 70°33' E 024°03'2 2.9
2017-Oct-15 12:59N 70°35' E 024°05'0 0.5
2017-Oct-15 12:30N 70°35' E 024°06'0 0.6
2017-Oct-15 12:00N 70°35' E 024°05'0 0.4
2017-Oct-15 11:30N 70°35' E 024°05'0 0.2
2017-Oct-15 11:00N 70°35' E 024°05'0 0.2
2017-Oct-15 10:30N 70°35' E 024°05'0 0.4
2017-Oct-15 10:00N 70°35' E 024°05'0 0.3
2017-Oct-15 09:30N 70°35' E 024°05'0 0.1
2017-Oct-15 09:00N 70°35' E 024°05'0 0.6
2017-Oct-15 08:30N 70°35' E 024°06'2 4.9
2017-Oct-15 08:00N 70°33' E 024°02'3 5.2
2017-Oct-15 07:30N 70°30' E 023°59'0 0.0
2017-Oct-15 07:00N 70°30' E 023°59'0 0.0
2017-Oct-15 06:30N 70°30' E 023°59'0 0.0
2017-Oct-15 06:00N 70°30' E 023°59'0 0.0
2017-Oct-15 05:30N 70°30' E 023°59'0 0.0
2017-Oct-15 05:00N 70°30' E 023°59'0 0.0
2017-Oct-15 04:30N 70°30' E 023°59'0 0.0
2017-Oct-15 04:00N 70°30' E 023°59'0 0.0
2017-Oct-15 03:30N 70°30' E 023°59'0 0.0
2017-Oct-15 02:59N 70°30' E 023°59'0 0.0
2017-Oct-15 02:30N 70°30' E 023°59'0 0.0
2017-Oct-15 02:00N 70°30' E 023°59'0 0.0
2017-Oct-15 01:30N 70°30' E 023°59'0 0.0
2017-Oct-15 01:00N 70°30' E 023°59'0 0.0
2017-Oct-15 00:30N 70°30' E 023°59'0 0.0
2017-Oct-15 00:00N 70°30' E 023°59'0 0.0
2017-Oct-14 23:30N 70°30' E 023°59'0 0.0
2017-Oct-14 23:00N 70°30' E 023°59'0 0.0
2017-Oct-14 22:30N 70°30' E 023°59'0 0.0
2017-Oct-14 22:00N 70°30' E 023°59'0 0.0
2017-Oct-14 21:30N 70°30' E 023°59'0 0.0
2017-Oct-14 21:00N 70°30' E 023°59'0 0.0
2017-Oct-14 20:29N 70°30' E 023°59'0 0.0
2017-Oct-14 19:59N 70°30' E 023°59'0 0.0
2017-Oct-14 19:30N 70°30' E 023°59'0 0.0
2017-Oct-14 19:00N 70°30' E 023°59'0 0.0
2017-Oct-14 18:30N 70°30' E 023°59'0 0.0
2017-Oct-14 18:00N 70°30' E 023°59'0 0.0
2017-Oct-14 17:30N 70°30' E 023°59'0 0.0
2017-Oct-14 17:00N 70°30' E 023°59'0 0.0
2017-Oct-14 16:30N 70°30' E 023°59'0 0.0
2017-Oct-14 16:00N 70°30' E 023°59'0 0.0
2017-Oct-14 15:30N 70°30' E 023°59'0 0.0
2017-Oct-14 14:59N 70°30' E 023°59'0 0.0
2017-Oct-14 14:30N 70°30' E 023°59'0 0.0
2017-Oct-14 14:00N 70°30' E 023°59'0 0.0
2017-Oct-14 13:29N 70°30' E 023°59'2 3.8
2017-Oct-14 12:59N 70°30' E 023°53'3 6.7
2017-Oct-14 12:30N 70°28' E 023°46'4 7.3
2017-Oct-14 12:00N 70°25' E 023°39'3 6.7
2017-Oct-14 11:30N 70°22' E 023°32'4 7.3
2017-Oct-14 11:00N 70°19' E 023°26'1 2.8
2017-Oct-14 10:29N 70°19' E 023°30'0 0.0
2017-Oct-14 10:00N 70°19' E 023°30'0 0.0
2017-Oct-14 09:30N 70°19' E 023°30'0 0.0
2017-Oct-14 09:00N 70°19' E 023°30'0 0.0
2017-Oct-14 08:30N 70°19' E 023°30'0 0.0
2017-Oct-14 08:00N 70°19' E 023°30'0 0.0
2017-Oct-14 07:30N 70°19' E 023°30'0 0.0
2017-Oct-14 07:00N 70°19' E 023°30'0 0.0
2017-Oct-14 06:29N 70°19' E 023°30'0 0.0
2017-Oct-14 06:00N 70°19' E 023°30'0 0.0
2017-Oct-14 05:30N 70°19' E 023°30'0 0.0
2017-Oct-14 05:00N 70°19' E 023°30'0 0.0
2017-Oct-14 04:30N 70°19' E 023°30'0 0.0
2017-Oct-14 04:00N 70°19' E 023°30'0 0.0
2017-Oct-14 03:30N 70°19' E 023°30'0 0.0
2017-Oct-14 03:00N 70°19' E 023°30'0 0.0
2017-Oct-14 02:30N 70°19' E 023°30'0 0.0
2017-Oct-14 02:00N 70°19' E 023°30'0 0.0
2017-Oct-14 01:29N 70°19' E 023°30'0 0.0
2017-Oct-14 01:00N 70°19' E 023°30'0 0.0
2017-Oct-14 00:30N 70°19' E 023°30'0 0.0
2017-Oct-13 23:59N 70°19' E 023°30'0 0.0
2017-Oct-13 23:30N 70°19' E 023°30'0 0.0
2017-Oct-13 23:00N 70°19' E 023°30'0 0.0
2017-Oct-13 22:30N 70°19' E 023°30'0 0.0
2017-Oct-13 22:00N 70°19' E 023°30'0 0.0
2017-Oct-13 21:30N 70°19' E 023°30'0 0.0
2017-Oct-13 21:00N 70°19' E 023°30'0 0.0
2017-Oct-13 20:30N 70°19' E 023°30'0 0.0
2017-Oct-13 20:00N 70°19' E 023°30'0 0.0
2017-Oct-13 19:30N 70°19' E 023°30'0 0.0
2017-Oct-13 19:00N 70°19' E 023°30'0 0.0
2017-Oct-13 18:30N 70°19' E 023°30'0 0.0
2017-Oct-13 18:00N 70°19' E 023°30'0 0.0
2017-Oct-13 17:29N 70°19' E 023°30'2 5.0
2017-Oct-13 17:00N 70°19' E 023°23'1 1.2
2017-Oct-13 16:30N 70°19' E 023°22'0 0.4
2017-Oct-13 16:00N 70°19' E 023°21'0 0.4
2017-Oct-13 15:30N 70°19' E 023°22'0 0.4
2017-Oct-13 14:59N 70°19' E 023°21'1 1.4
2017-Oct-13 14:30N 70°20' E 023°22'0 0.6
2017-Oct-13 14:00N 70°20' E 023°23'1 1.7
2017-Oct-13 13:29N 70°21' E 023°24'0 0.5
2017-Oct-13 13:00N 70°21' E 023°25'0 0.8
2017-Oct-13 12:30N 70°21' E 023°24'0 0.1
2017-Oct-13 12:00N 70°21' E 023°24'0 0.7
2017-Oct-13 11:30N 70°21' E 023°25'0 0.5
2017-Oct-13 11:00N 70°20' E 023°24'0 0.5
2017-Oct-13 10:30N 70°21' E 023°25'0 0.7
2017-Oct-13 10:00N 70°21' E 023°24'0 0.5
2017-Oct-13 09:30N 70°21' E 023°25'0 0.5
2017-Oct-13 09:00N 70°21' E 023°25'0 0.8
2017-Oct-13 08:30N 70°21' E 023°24'0 0.5
2017-Oct-13 08:00N 70°21' E 023°25'2 0.1
2017-Oct-12 16:50N 70°19' E 023°25'2 3.6
2017-Oct-12 16:24N 70°20' E 023°22'0 0.5
2017-Oct-12 16:00N 70°20' E 023°22'0 0.3
2017-Oct-12 15:30N 70°20' E 023°22'0 0.4
2017-Oct-12 15:00N 70°20' E 023°22'1 2.5
2017-Oct-12 14:29N 70°19' E 023°26'0 0.4
2017-Oct-12 14:00N 70°19' E 023°26'0 0.3
2017-Oct-12 13:30N 70°19' E 023°26'0 0.7
2017-Oct-12 13:00N 70°19' E 023°25'2 3.6
2017-Oct-12 12:30N 70°17' E 023°24'0 0.3
2017-Oct-12 12:00N 70°17' E 023°25'0 0.4
2017-Oct-12 11:30N 70°17' E 023°25'0 0.8
2017-Oct-12 11:00N 70°18' E 023°26'0 0.5
2017-Oct-12 10:30N 70°17' E 023°26'0 0.6
2017-Oct-12 10:00N 70°17' E 023°25'0 0.2
2017-Oct-12 09:30N 70°17' E 023°25'1 2.6
2017-Oct-12 09:00N 70°17' E 023°21'3 5.3
2017-Oct-12 08:30N 70°15' E 023°15'2 4.7
2017-Oct-12 08:00N 70°15' E 023°21'0 0.3
2017-Oct-12 07:30N 70°15' E 023°21'0 0.4
2017-Oct-12 07:00N 70°15' E 023°22'0 0.5
2017-Oct-12 06:30N 70°15' E 023°21'1 2.1
2017-Oct-12 06:00N 70°15' E 023°24'0 0.0
2017-Oct-12 05:30N 70°15' E 023°24'0 0.0
2017-Oct-12 05:00N 70°15' E 023°24'0 0.0
2017-Oct-12 04:30N 70°15' E 023°24'0 0.0
2017-Oct-12 04:00N 70°15' E 023°24'0 0.0
2017-Oct-12 03:30N 70°15' E 023°24'0 0.0
2017-Oct-12 03:00N 70°15' E 023°24'0 0.0
2017-Oct-12 02:30N 70°15' E 023°24'0 0.0
2017-Oct-12 02:00N 70°15' E 023°24'0 0.0
2017-Oct-12 01:30N 70°15' E 023°24'0 0.0
2017-Oct-12 01:00N 70°15' E 023°24'0 0.0
2017-Oct-12 00:30N 70°15' E 023°24'0 0.0
2017-Oct-12 00:00N 70°15' E 023°24'0 0.0
2017-Oct-11 23:30N 70°15' E 023°24'0 0.0
2017-Oct-11 23:00N 70°15' E 023°24'0 0.0
2017-Oct-11 22:30N 70°15' E 023°24'0 0.0
2017-Oct-11 22:00N 70°15' E 023°24'0 0.0
2017-Oct-11 21:30N 70°15' E 023°24'0 0.0
2017-Oct-11 21:00N 70°15' E 023°24'0 0.0
2017-Oct-11 20:30N 70°15' E 023°24'0 0.0
2017-Oct-11 20:00N 70°15' E 023°24'0 0.0
2017-Oct-11 19:30N 70°15' E 023°24'0 0.0
2017-Oct-11 19:00N 70°15' E 023°24'0 0.0
2017-Oct-11 18:30N 70°15' E 023°24'0 0.0
2017-Oct-11 18:00N 70°15' E 023°24'0 0.0
2017-Oct-11 17:30N 70°15' E 023°24'0 0.4
2017-Oct-11 17:00N 70°15' E 023°24'0 0.0
2017-Oct-11 00:00N 70°15' E 023°24'0 0.0
2017-Oct-10 23:30N 70°15' E 023°24'0 0.0
2017-Oct-10 23:00N 70°15' E 023°24'0 0.0
2017-Oct-10 22:30N 70°15' E 023°24'0 0.0
2017-Oct-10 22:00N 70°15' E 023°24'0 0.0
2017-Oct-10 21:30N 70°15' E 023°24'0 0.0
2017-Oct-10 21:00N 70°15' E 023°24'0 0.0
2017-Oct-10 20:30N 70°15' E 023°24'0 0.0
2017-Oct-10 20:00N 70°15' E 023°24'0 0.0
2017-Oct-10 19:30N 70°15' E 023°24'0 0.0
2017-Oct-10 19:00N 70°15' E 023°24'0 0.0
2017-Oct-10 18:30N 70°15' E 023°24'0 0.0
2017-Oct-10 18:00N 70°15' E 023°24'0 0.0
2017-Oct-10 17:30N 70°15' E 023°24'0 0.0
2017-Oct-10 17:00N 70°15' E 023°24'0 0.0
2017-Oct-10 16:30N 70°15' E 023°24'0 0.0
2017-Oct-10 16:00N 70°15' E 023°24'0 0.0
2017-Oct-10 15:30N 70°15' E 023°24'0 0.0
2017-Oct-10 15:00N 70°15' E 023°24'0 0.2
2017-Oct-10 14:00N 70°15' E 023°24'3 6.3
2017-Oct-10 13:30N 70°14' E 023°15'1 3.0
2017-Oct-10 13:00N 70°13' E 023°12'3 5.5
2017-Oct-10 12:30N 70°14' E 023°04'3 5.6
2017-Oct-10 12:00N 70°14' E 022°56'2 4.1
2017-Oct-10 11:30N 70°15' E 022°50'0 0.5
2017-Oct-10 11:00N 70°15' E 022°49'0 0.5
2017-Oct-10 10:30N 70°15' E 022°50'0 0.4
2017-Oct-10 10:00N 70°15' E 022°49'0 0.3
2017-Oct-10 09:30N 70°15' E 022°50'0 0.5
2017-Oct-10 09:00N 70°15' E 022°49'0 0.5
2017-Oct-10 08:30N 70°15' E 022°50'0 0.4
2017-Oct-10 08:00N 70°15' E 022°49'1 2.2
2017-Oct-10 07:30N 70°15' E 022°52'3 6.3
2017-Oct-10 07:00N 70°14' E 023°02'3 6.3
2017-Oct-10 06:30N 70°13' E 023°10'0 0.9
2017-Oct-10 06:00N 70°13' E 023°12'0 0.0
2017-Oct-10 05:30N 70°13' E 023°12'0 0.0
2017-Oct-10 05:00N 70°13' E 023°12'0 0.0
2017-Oct-10 04:30N 70°13' E 023°12'0 0.0
2017-Oct-10 04:00N 70°13' E 023°12'0 0.0
2017-Oct-10 03:30N 70°13' E 023°12'0 0.0
2017-Oct-10 03:00N 70°13' E 023°12'0 0.0
2017-Oct-10 02:30N 70°13' E 023°12'0 0.0
2017-Oct-10 02:00N 70°13' E 023°12'0 0.0
2017-Oct-10 01:30N 70°13' E 023°12'0 0.0
2017-Oct-10 01:00N 70°13' E 023°12'0 0.0
2017-Oct-10 00:30N 70°13' E 023°12'0 0.0
2017-Oct-10 00:00N 70°13' E 023°12'0 0.0
2017-Oct-09 23:30N 70°13' E 023°12'0 0.0
2017-Oct-09 23:00N 70°13' E 023°12'0 0.0
2017-Oct-09 22:30N 70°13' E 023°12'0 0.0
2017-Oct-09 22:00N 70°13' E 023°12'0 0.0
2017-Oct-09 21:30N 70°13' E 023°12'0 0.0
2017-Oct-09 21:00N 70°13' E 023°12'0 0.0
2017-Oct-09 20:30N 70°13' E 023°12'0 0.0
2017-Oct-09 20:00N 70°13' E 023°12'0 0.0
2017-Oct-09 19:30N 70°13' E 023°12'0 0.0
2017-Oct-09 19:00N 70°13' E 023°12'0 0.0
2017-Oct-09 18:30N 70°13' E 023°12'0 0.0
2017-Oct-09 18:00N 70°13' E 023°12'0 0.9
2017-Oct-09 17:29N 70°13' E 023°10'3 6.6
2017-Oct-09 17:00N 70°14' E 023°01'  
Track history (hours):
 
Tides and Currents Weather Stations Pressure Air Temp Water Temp Dewpoint Dewpoint Depression Visibility Wind Speed Wind Dir Waves Ship Positions

Oceanographic research ship Fangst (Norway)

Detailed information on ship capabilities available from University of Delaware's Ocean Information Center and ARCUS's ALIAS (Arctic Logistics Information and Support) project.

Last reported at 2017-Oct-19 16:30 UTC. Time now 2017-Oct-19 16:34 UTC.
Position N 69°39' E 018°58'.

Length 14 m; draft 2.5 m.

Type: Fishing. MMSI: 257076840.

Date/timePositionNaut miles runAvg speedWind from/ knotsBaromVisibWave heightAir tempDewpointWater temp
2017-Oct-19 16:30N 69°39' E 018°58'0 0.0
2017-Oct-19 15:59N 69°39' E 018°58'0 0.0
2017-Oct-19 15:30N 69°39' E 018°58'0 0.0
2017-Oct-19 14:59N 69°39' E 018°58'0 0.0
2017-Oct-19 14:30N 69°39' E 018°58'0 0.0
2017-Oct-19 14:00N 69°39' E 018°58'0 1.0
2017-Oct-19 13:30N 69°39' E 018°59'3 6.5
2017-Oct-19 13:00N 69°42' E 019°03'3 6.4
2017-Oct-19 12:30N 69°45' E 019°07'3 6.3
2017-Oct-19 12:00N 69°47' E 019°15'3 6.5
2017-Oct-19 11:29N 69°48' E 019°23'2 3.8
2017-Oct-19 11:00N 69°50' E 019°27'1 2.8
2017-Oct-19 10:30N 69°51' E 019°24'4 7.4
2017-Oct-19 10:00N 69°54' E 019°29'4 7.2
2017-Oct-19 09:30N 69°57' E 019°35'3 7.0
2017-Oct-19 09:00N 69°59' E 019°42'3 6.4
2017-Oct-19 08:30N 70°01' E 019°49'3 6.7
2017-Oct-19 08:00N 70°03' E 019°58'3 6.6
2017-Oct-19 07:30N 70°03' E 020°07'3 6.4
2017-Oct-19 06:59N 70°03' E 020°17'3 6.5
2017-Oct-19 06:30N 70°03' E 020°26'2 3.5
2017-Oct-19 06:00N 70°04' E 020°30'0 0.0
2017-Oct-19 05:30N 70°04' E 020°30'0 0.0
2017-Oct-19 05:00N 70°04' E 020°30'0 0.0
2017-Oct-19 04:30N 70°04' E 020°30'0 0.0
2017-Oct-19 04:00N 70°04' E 020°30'0 0.0
2017-Oct-19 03:30N 70°04' E 020°30'0 0.0
2017-Oct-19 03:00N 70°04' E 020°30'0 0.0
2017-Oct-19 02:30N 70°04' E 020°30'0 0.0
2017-Oct-19 02:00N 70°04' E 020°30'0 0.0
2017-Oct-19 01:30N 70°04' E 020°30'0 0.0
2017-Oct-19 01:00N 70°04' E 020°30'0 0.0
2017-Oct-19 00:30N 70°04' E 020°30'0 0.0
2017-Oct-19 00:00N 70°04' E 020°30'0 0.0
2017-Oct-18 23:30N 70°04' E 020°30'0 0.0
2017-Oct-18 23:00N 70°04' E 020°30'0 0.0
2017-Oct-18 22:29N 70°04' E 020°30'0 0.0
2017-Oct-18 22:00N 70°04' E 020°30'0 0.0
2017-Oct-18 21:30N 70°04' E 020°30'0 0.0
2017-Oct-18 21:00N 70°04' E 020°30'0 0.0
2017-Oct-18 20:30N 70°04' E 020°30'0 0.0
2017-Oct-18 20:00N 70°04' E 020°30'0 0.0
2017-Oct-18 19:30N 70°04' E 020°30'0 0.0
2017-Oct-18 18:59N 70°04' E 020°30'0 0.3
2017-Oct-18 18:30N 70°04' E 020°30'3 5.5
2017-Oct-18 18:00N 70°02' E 020°35'3 6.8
2017-Oct-18 17:30N 70°02' E 020°44'3 6.9
2017-Oct-18 17:00N 70°04' E 020°54'3 6.4
2017-Oct-18 16:30N 70°04' E 021°03'3 6.6
2017-Oct-18 16:00N 70°05' E 021°12'3 6.6
2017-Oct-18 15:30N 70°06' E 021°22'1 1.0
2017-Oct-18 15:00N 70°06' E 021°22'0 0.1
2017-Oct-18 14:00N 70°06' E 021°22'1 1.6
2017-Oct-18 13:30N 70°07' E 021°22'3 6.7
2017-Oct-18 13:00N 70°09' E 021°15'3 6.3
2017-Oct-18 12:30N 70°12' E 021°08'3 5.5
2017-Oct-18 12:00N 70°14' E 021°10'3 6.2
2017-Oct-18 11:29N 70°16' E 021°18'3 6.2
2017-Oct-18 11:00N 70°18' E 021°25'3 6.1
2017-Oct-18 10:30N 70°20' E 021°32'3 5.8
2017-Oct-18 10:00N 70°22' E 021°38'3 5.4
2017-Oct-18 09:30N 70°24' E 021°44'3 6.2
2017-Oct-18 09:00N 70°22' E 021°51'3 5.7
2017-Oct-18 08:30N 70°20' E 021°56'2 4.1
2017-Oct-18 08:00N 70°18' E 021°51'3 6.4
2017-Oct-18 07:30N 70°16' E 021°45'1 2.6
2017-Oct-18 07:00N 70°15' E 021°43'1 2.6
2017-Oct-18 06:30N 70°15' E 021°47'0 0.4
2017-Oct-18 06:00N 70°15' E 021°47'0 0.0
2017-Oct-18 05:30N 70°15' E 021°47'0 0.0
2017-Oct-18 05:00N 70°15' E 021°47'0 0.0
2017-Oct-18 04:29N 70°15' E 021°47'0 0.0
2017-Oct-18 04:00N 70°15' E 021°47'0 0.0
2017-Oct-18 03:30N 70°15' E 021°47'0 0.0
2017-Oct-18 03:00N 70°15' E 021°47'0 0.0
2017-Oct-18 02:29N 70°15' E 021°47'0 0.0
2017-Oct-18 02:00N 70°15' E 021°47'0 0.0
2017-Oct-18 01:30N 70°15' E 021°47'0 0.0
2017-Oct-18 01:00N 70°15' E 021°47'0 0.0
2017-Oct-18 00:30N 70°15' E 021°47'0 0.0
2017-Oct-18 00:00N 70°15' E 021°47'0 0.0
2017-Oct-17 23:29N 70°15' E 021°47'0 0.0
2017-Oct-17 22:59N 70°15' E 021°47'0 0.0
2017-Oct-17 22:30N 70°15' E 021°47'0 0.0
2017-Oct-17 22:00N 70°15' E 021°47'0 0.0
2017-Oct-17 21:30N 70°15' E 021°47'0 0.0
2017-Oct-17 21:00N 70°15' E 021°47'0 0.0
2017-Oct-17 20:30N 70°15' E 021°47'0 0.0
2017-Oct-17 20:00N 70°15' E 021°47'0 0.0
2017-Oct-17 19:30N 70°15' E 021°47'0 0.0
2017-Oct-17 18:59N 70°15' E 021°47'0 0.0
2017-Oct-17 18:30N 70°15' E 021°47'0 0.0
2017-Oct-17 18:00N 70°15' E 021°47'0 0.0
2017-Oct-17 17:30N 70°15' E 021°47'2 3.3
2017-Oct-17 17:00N 70°17' E 021°47'3 6.9
2017-Oct-17 16:30N 70°20' E 021°53'3 6.5
2017-Oct-17 16:00N 70°22' E 021°59'3 6.4
2017-Oct-17 15:30N 70°24' E 022°07'3 6.3
2017-Oct-17 15:00N 70°26' E 022°14'3 6.7
2017-Oct-17 14:30N 70°28' E 022°22'1 2.9
2017-Oct-17 14:00N 70°29' E 022°26'1 1.8
2017-Oct-17 13:30N 70°29' E 022°28'0 0.5
2017-Oct-17 13:00N 70°30' E 022°28'0 0.3
2017-Oct-17 12:30N 70°29' E 022°28'0 0.4
2017-Oct-17 12:00N 70°30' E 022°29'3 6.1
2017-Oct-17 11:30N 70°30' E 022°38'3 6.2
2017-Oct-17 11:00N 70°30' E 022°47'3 5.5
2017-Oct-17 10:30N 70°31' E 022°54'2 3.4
2017-Oct-17 10:00N 70°33' E 022°58'1 1.1
2017-Oct-17 09:30N 70°33' E 022°59'0 0.6
2017-Oct-17 09:00N 70°33' E 022°58'0 0.5
2017-Oct-17 08:30N 70°33' E 022°59'0 0.4
2017-Oct-17 08:00N 70°33' E 022°58'1 2.2
2017-Oct-17 07:30N 70°33' E 023°01'3 6.2
2017-Oct-17 07:00N 70°36' E 023°07'3 6.6
2017-Oct-17 06:30N 70°38' E 023°15'3 6.5
2017-Oct-17 05:59N 70°39' E 023°25'3 6.4
2017-Oct-17 05:30N 70°39' E 023°34'2 5.0
2017-Oct-17 05:00N 70°40' E 023°41'0 0.0
2017-Oct-17 04:30N 70°40' E 023°41'0 0.0
2017-Oct-17 04:00N 70°40' E 023°41'0 0.0
2017-Oct-17 03:30N 70°40' E 023°41'0 0.0
2017-Oct-17 03:00N 70°40' E 023°41'0 0.0
2017-Oct-17 02:30N 70°40' E 023°41'0 0.0
2017-Oct-17 02:00N 70°40' E 023°41'0 0.0
2017-Oct-17 01:30N 70°40' E 023°41'0 0.0
2017-Oct-17 01:00N 70°40' E 023°41'0 0.0
2017-Oct-17 00:30N 70°40' E 023°41'0 0.0
2017-Oct-17 00:00N 70°40' E 023°41'0 0.0
2017-Oct-16 23:30N 70°40' E 023°41'0 0.0
2017-Oct-16 23:00N 70°40' E 023°41'0 0.0
2017-Oct-16 22:30N 70°40' E 023°41'0 0.0
2017-Oct-16 22:00N 70°40' E 023°41'0 0.0
2017-Oct-16 21:30N 70°40' E 023°41'0 0.0
2017-Oct-16 21:00N 70°40' E 023°41'0 0.0
2017-Oct-16 20:30N 70°40' E 023°41'0 0.0
2017-Oct-16 20:00N 70°40' E 023°41'0 0.0
2017-Oct-16 19:30N 70°40' E 023°41'0 0.0
2017-Oct-16 19:00N 70°40' E 023°41'0 0.0
2017-Oct-16 18:30N 70°40' E 023°41'0 0.0
2017-Oct-16 18:00N 70°40' E 023°41'0 0.0
2017-Oct-16 17:30N 70°40' E 023°41'0 0.0
2017-Oct-16 17:00N 70°40' E 023°41'0 0.0
2017-Oct-16 16:30N 70°40' E 023°41'0 0.0
2017-Oct-16 16:00N 70°40' E 023°41'0 0.9
2017-Oct-16 15:30N 70°40' E 023°40'3 6.6
2017-Oct-16 15:00N 70°37' E 023°36'4 7.0
2017-Oct-16 14:30N 70°33' E 023°39'3 2.8
2017-Oct-16 13:30N 70°31' E 023°44'2 4.2
2017-Oct-16 13:00N 70°30' E 023°50'3 6.1
2017-Oct-16 12:28N 70°31' E 023°59'2 3.9
2017-Oct-16 11:59N 70°31' E 024°05'0 0.4
2017-Oct-16 11:30N 70°31' E 024°04'1 2.9
2017-Oct-16 11:00N 70°32' E 024°05'2 3.2
2017-Oct-16 10:29N 70°34' E 024°05'1 3.0
2017-Oct-16 10:00N 70°35' E 024°07'0 0.5
2017-Oct-16 09:30N 70°35' E 024°07'0 0.2
2017-Oct-16 09:00N 70°35' E 024°07'0 0.4
2017-Oct-16 08:31N 70°35' E 024°07'0 0.5
2017-Oct-16 08:00N 70°35' E 024°07'0 0.5
2017-Oct-16 07:30N 70°35' E 024°07'0 0.4
2017-Oct-16 07:00N 70°35' E 024°07'3 6.8
2017-Oct-16 06:30N 70°32' E 024°02'2 4.4
2017-Oct-16 06:00N 70°30' E 023°59'0 0.0
2017-Oct-16 05:30N 70°30' E 023°59'0 0.0
2017-Oct-16 05:00N 70°30' E 023°59'0 0.0
2017-Oct-16 04:29N 70°30' E 023°59'0 0.0
2017-Oct-16 03:59N 70°30' E 023°59'0 0.0
2017-Oct-16 03:30N 70°30' E 023°59'0 0.0
2017-Oct-16 03:00N 70°30' E 023°59'0 0.0
2017-Oct-16 02:30N 70°30' E 023°59'0 0.0
2017-Oct-16 02:00N 70°30' E 023°59'0 0.0
2017-Oct-16 01:29N 70°30' E 023°59'0 0.0
2017-Oct-16 01:00N 70°30' E 023°59'0 0.0
2017-Oct-16 00:30N 70°30' E 023°59'0 0.0
2017-Oct-16 00:00N 70°30' E 023°59'0 0.0
2017-Oct-15 23:30N 70°30' E 023°59'0 0.0
2017-Oct-15 23:00N 70°30' E 023°59'0 0.0
2017-Oct-15 22:30N 70°30' E 023°59'0 0.0
2017-Oct-15 22:00N 70°30' E 023°59'0 0.0
2017-Oct-15 21:30N 70°30' E 023°59'0 0.0
2017-Oct-15 21:00N 70°30' E 023°59'0 0.0
2017-Oct-15 20:30N 70°30' E 023°59'0 0.0
2017-Oct-15 20:00N 70°30' E 023°59'0 0.0
2017-Oct-15 19:30N 70°30' E 023°59'0 0.0
2017-Oct-15 19:00N 70°30' E 023°59'0 0.0
2017-Oct-15 18:30N 70°30' E 023°59'0 0.0
2017-Oct-15 18:00N 70°30' E 023°59'0 0.0
2017-Oct-15 17:30N 70°30' E 023°59'0 0.0
2017-Oct-15 17:00N 70°30' E 023°59'0 0.0
2017-Oct-15 16:30N 70°30' E 023°59'0 0.0
2017-Oct-15 16:00N 70°30' E 023°59'0 0.0
2017-Oct-15 15:30N 70°30' E 023°59'0 0.0
2017-Oct-15 14:59N 70°30' E 023°59'0 0.1
2017-Oct-15 14:00N 70°30' E 023°59'3 6.3
2017-Oct-15 13:30N 70°33' E 024°03'2 2.9
2017-Oct-15 12:59N 70°35' E 024°05'0 0.5
2017-Oct-15 12:30N 70°35' E 024°06'0 0.6
2017-Oct-15 12:00N 70°35' E 024°05'0 0.4
2017-Oct-15 11:30N 70°35' E 024°05'0 0.2
2017-Oct-15 11:00N 70°35' E 024°05'0 0.2
2017-Oct-15 10:30N 70°35' E 024°05'0 0.4
2017-Oct-15 10:00N 70°35' E 024°05'0 0.3
2017-Oct-15 09:30N 70°35' E 024°05'0 0.1
2017-Oct-15 09:00N 70°35' E 024°05'0 0.6
2017-Oct-15 08:30N 70°35' E 024°06'2 4.9
2017-Oct-15 08:00N 70°33' E 024°02'3 5.2
2017-Oct-15 07:30N 70°30' E 023°59'0 0.0
2017-Oct-15 07:00N 70°30' E 023°59'0 0.0
2017-Oct-15 06:30N 70°30' E 023°59'0 0.0
2017-Oct-15 06:00N 70°30' E 023°59'0 0.0
2017-Oct-15 05:30N 70°30' E 023°59'0 0.0
2017-Oct-15 05:00N 70°30' E 023°59'0 0.0
2017-Oct-15 04:30N 70°30' E 023°59'0 0.0
2017-Oct-15 04:00N 70°30' E 023°59'0 0.0
2017-Oct-15 03:30N 70°30' E 023°59'0 0.0
2017-Oct-15 02:59N 70°30' E 023°59'0 0.0
2017-Oct-15 02:30N 70°30' E 023°59'0 0.0
2017-Oct-15 02:00N 70°30' E 023°59'0 0.0
2017-Oct-15 01:30N 70°30' E 023°59'0 0.0
2017-Oct-15 01:00N 70°30' E 023°59'0 0.0
2017-Oct-15 00:30N 70°30' E 023°59'0 0.0
2017-Oct-15 00:00N 70°30' E 023°59'0 0.0
2017-Oct-14 23:30N 70°30' E 023°59'0 0.0
2017-Oct-14 23:00N 70°30' E 023°59'0 0.0
2017-Oct-14 22:30N 70°30' E 023°59'0 0.0
2017-Oct-14 22:00N 70°30' E 023°59'0 0.0
2017-Oct-14 21:30N 70°30' E 023°59'0 0.0
2017-Oct-14 21:00N 70°30' E 023°59'0 0.0
2017-Oct-14 20:29N 70°30' E 023°59'0 0.0
2017-Oct-14 19:59N 70°30' E 023°59'0 0.0
2017-Oct-14 19:30N 70°30' E 023°59'0 0.0
2017-Oct-14 19:00N 70°30' E 023°59'0 0.0
2017-Oct-14 18:30N 70°30' E 023°59'0 0.0
2017-Oct-14 18:00N 70°30' E 023°59'0 0.0
2017-Oct-14 17:30N 70°30' E 023°59'0 0.0
2017-Oct-14 17:00N 70°30' E 023°59'0 0.0
2017-Oct-14 16:30N 70°30' E 023°59'0 0.0
2017-Oct-14 16:00N 70°30' E 023°59'0 0.0
2017-Oct-14 15:30N 70°30' E 023°59'0 0.0
2017-Oct-14 14:59N 70°30' E 023°59'0 0.0
2017-Oct-14 14:30N 70°30' E 023°59'0 0.0
2017-Oct-14 14:00N 70°30' E 023°59'0 0.0
2017-Oct-14 13:29N 70°30' E 023°59'2 3.8
2017-Oct-14 12:59N 70°30' E 023°53'3 6.7
2017-Oct-14 12:30N 70°28' E 023°46'4 7.3
2017-Oct-14 12:00N 70°25' E 023°39'3 6.7
2017-Oct-14 11:30N 70°22' E 023°32'4 7.3
2017-Oct-14 11:00N 70°19' E 023°26'1 2.8
2017-Oct-14 10:29N 70°19' E 023°30'0 0.0
2017-Oct-14 10:00N 70°19' E 023°30'0 0.0
2017-Oct-14 09:30N 70°19' E 023°30'0 0.0
2017-Oct-14 09:00N 70°19' E 023°30'0 0.0
2017-Oct-14 08:30N 70°19' E 023°30'0 0.0
2017-Oct-14 08:00N 70°19' E 023°30'0 0.0
2017-Oct-14 07:30N 70°19' E 023°30'0 0.0
2017-Oct-14 07:00N 70°19' E 023°30'0 0.0
2017-Oct-14 06:29N 70°19' E 023°30'0 0.0
2017-Oct-14 06:00N 70°19' E 023°30'0 0.0
2017-Oct-14 05:30N 70°19' E 023°30'0 0.0
2017-Oct-14 05:00N 70°19' E 023°30'0 0.0
2017-Oct-14 04:30N 70°19' E 023°30'0 0.0
2017-Oct-14 04:00N 70°19' E 023°30'0 0.0
2017-Oct-14 03:30N 70°19' E 023°30'0 0.0
2017-Oct-14 03:00N 70°19' E 023°30'0 0.0
2017-Oct-14 02:30N 70°19' E 023°30'0 0.0
2017-Oct-14 02:00N 70°19' E 023°30'0 0.0
2017-Oct-14 01:29N 70°19' E 023°30'0 0.0
2017-Oct-14 01:00N 70°19' E 023°30'0 0.0
2017-Oct-14 00:30N 70°19' E 023°30'0 0.0
2017-Oct-13 23:59N 70°19' E 023°30'0 0.0
2017-Oct-13 23:30N 70°19' E 023°30'0 0.0
2017-Oct-13 23:00N 70°19' E 023°30'0 0.0
2017-Oct-13 22:30N 70°19' E 023°30'0 0.0
2017-Oct-13 22:00N 70°19' E 023°30'0 0.0
2017-Oct-13 21:30N 70°19' E 023°30'0 0.0
2017-Oct-13 21:00N 70°19' E 023°30'0 0.0
2017-Oct-13 20:30N 70°19' E 023°30'0 0.0
2017-Oct-13 20:00N 70°19' E 023°30'0 0.0
2017-Oct-13 19:30N 70°19' E 023°30'0 0.0
2017-Oct-13 19:00N 70°19' E 023°30'0 0.0
2017-Oct-13 18:30N 70°19' E 023°30'0 0.0
2017-Oct-13 18:00N 70°19' E 023°30'0 0.0
2017-Oct-13 17:29N 70°19' E 023°30'2 5.0
2017-Oct-13 17:00N 70°19' E 023°23'1 1.2
2017-Oct-13 16:30N 70°19' E 023°22'0 0.4
2017-Oct-13 16:00N 70°19' E 023°21'0 0.4
2017-Oct-13 15:30N 70°19' E 023°22'0 0.4
2017-Oct-13 14:59N 70°19' E 023°21'1 1.4
2017-Oct-13 14:30N 70°20' E 023°22'0 0.6
2017-Oct-13 14:00N 70°20' E 023°23'1 1.7
2017-Oct-13 13:29N 70°21' E 023°24'0 0.5
2017-Oct-13 13:00N 70°21' E 023°25'0 0.8
2017-Oct-13 12:30N 70°21' E 023°24'0 0.1
2017-Oct-13 12:00N 70°21' E 023°24'0 0.7
2017-Oct-13 11:30N 70°21' E 023°25'0 0.5
2017-Oct-13 11:00N 70°20' E 023°24'0 0.5
2017-Oct-13 10:30N 70°21' E 023°25'0 0.7
2017-Oct-13 10:00N 70°21' E 023°24'0 0.5
2017-Oct-13 09:30N 70°21' E 023°25'0 0.5
2017-Oct-13 09:00N 70°21' E 023°25'0 0.8
2017-Oct-13 08:30N 70°21' E 023°24'0 0.5
2017-Oct-13 08:00N 70°21' E 023°25'2 0.1
2017-Oct-12 16:50N 70°19' E 023°25'2 3.6
2017-Oct-12 16:24N 70°20' E 023°22'0 0.5
2017-Oct-12 16:00N 70°20' E 023°22'0 0.3
2017-Oct-12 15:30N 70°20' E 023°22'0 0.4
2017-Oct-12 15:00N 70°20' E 023°22'1 2.5
2017-Oct-12 14:29N 70°19' E 023°26'0 0.4
2017-Oct-12 14:00N 70°19' E 023°26'0 0.3
2017-Oct-12 13:30N 70°19' E 023°26'0 0.7
2017-Oct-12 13:00N 70°19' E 023°25'2 3.6
2017-Oct-12 12:30N 70°17' E 023°24'0 0.3
2017-Oct-12 12:00N 70°17' E 023°25'0 0.4
2017-Oct-12 11:30N 70°17' E 023°25'0 0.8
2017-Oct-12 11:00N 70°18' E 023°26'0 0.5
2017-Oct-12 10:30N 70°17' E 023°26'0 0.6
2017-Oct-12 10:00N 70°17' E 023°25'0 0.2
2017-Oct-12 09:30N 70°17' E 023°25'1 2.6
2017-Oct-12 09:00N 70°17' E 023°21'3 5.3
2017-Oct-12 08:30N 70°15' E 023°15'2 4.7
2017-Oct-12 08:00N 70°15' E 023°21'0 0.3
2017-Oct-12 07:30N 70°15' E 023°21'0 0.4
2017-Oct-12 07:00N 70°15' E 023°22'0 0.5
2017-Oct-12 06:30N 70°15' E 023°21'1 2.1
2017-Oct-12 06:00N 70°15' E 023°24'0 0.0
2017-Oct-12 05:30N 70°15' E 023°24'0 0.0
2017-Oct-12 05:00N 70°15' E 023°24'0 0.0
2017-Oct-12 04:30N 70°15' E 023°24'0 0.0
2017-Oct-12 04:00N 70°15' E 023°24'0 0.0
2017-Oct-12 03:30N 70°15' E 023°24'0 0.0
2017-Oct-12 03:00N 70°15' E 023°24'0 0.0
2017-Oct-12 02:30N 70°15' E 023°24'0 0.0
2017-Oct-12 02:00N 70°15' E 023°24'0 0.0
2017-Oct-12 01:30N 70°15' E 023°24'0 0.0
2017-Oct-12 01:00N 70°15' E 023°24'0 0.0
2017-Oct-12 00:30N 70°15' E 023°24'0 0.0
2017-Oct-12 00:00N 70°15' E 023°24'0 0.0
2017-Oct-11 23:30N 70°15' E 023°24'0 0.0
2017-Oct-11 23:00N 70°15' E 023°24'0 0.0
2017-Oct-11 22:30N 70°15' E 023°24'0 0.0
2017-Oct-11 22:00N 70°15' E 023°24'0 0.0
2017-Oct-11 21:30N 70°15' E 023°24'0 0.0
2017-Oct-11 21:00N 70°15' E 023°24'0 0.0
2017-Oct-11 20:30N 70°15' E 023°24'0 0.0
2017-Oct-11 20:00N 70°15' E 023°24'0 0.0
2017-Oct-11 19:30N 70°15' E 023°24'0 0.0
2017-Oct-11 19:00N 70°15' E 023°24'0 0.0
2017-Oct-11 18:30N 70°15' E 023°24'0 0.0
2017-Oct-11 18:00N 70°15' E 023°24'0 0.0
2017-Oct-11 17:30N 70°15' E 023°24'0 0.4
2017-Oct-11 17:00N 70°15' E 023°24'0 0.0
2017-Oct-11 00:00N 70°15' E 023°24'0 0.0
2017-Oct-10 23:30N 70°15' E 023°24'0 0.0
2017-Oct-10 23:00N 70°15' E 023°24'0 0.0
2017-Oct-10 22:30N 70°15' E 023°24'0 0.0
2017-Oct-10 22:00N 70°15' E 023°24'0 0.0
2017-Oct-10 21:30N 70°15' E 023°24'0 0.0
2017-Oct-10 21:00N 70°15' E 023°24'0 0.0
2017-Oct-10 20:30N 70°15' E 023°24'0 0.0
2017-Oct-10 20:00N 70°15' E 023°24'0 0.0
2017-Oct-10 19:30N 70°15' E 023°24'0 0.0
2017-Oct-10 19:00N 70°15' E 023°24'0 0.0
2017-Oct-10 18:30N 70°15' E 023°24'0 0.0
2017-Oct-10 18:00N 70°15' E 023°24'0 0.0
2017-Oct-10 17:30N 70°15' E 023°24'0 0.0
2017-Oct-10 17:00N 70°15' E 023°24'0 0.0
2017-Oct-10 16:30N 70°15' E 023°24'0 0.0
2017-Oct-10 16:00N 70°15' E 023°24'0 0.0
2017-Oct-10 15:30N 70°15' E 023°24'0 0.0
2017-Oct-10 15:00N 70°15' E 023°24'0 0.2
2017-Oct-10 14:00N 70°15' E 023°24'3 6.3
2017-Oct-10 13:30N 70°14' E 023°15'1 3.0
2017-Oct-10 13:00N 70°13' E 023°12'3 5.5
2017-Oct-10 12:30N 70°14' E 023°04'3 5.6
2017-Oct-10 12:00N 70°14' E 022°56'2 4.1
2017-Oct-10 11:30N 70°15' E 022°50'0 0.5
2017-Oct-10 11:00N 70°15' E 022°49'0 0.5
2017-Oct-10 10:30N 70°15' E 022°50'0 0.4
2017-Oct-10 10:00N 70°15' E 022°49'0 0.3
2017-Oct-10 09:30N 70°15' E 022°50'0 0.5
2017-Oct-10 09:00N 70°15' E 022°49'0 0.5
2017-Oct-10 08:30N 70°15' E 022°50'0 0.4
2017-Oct-10 08:00N 70°15' E 022°49'1 2.2
2017-Oct-10 07:30N 70°15' E 022°52'3 6.3
2017-Oct-10 07:00N 70°14' E 023°02'3 6.3
2017-Oct-10 06:30N 70°13' E 023°10'0 0.9
2017-Oct-10 06:00N 70°13' E 023°12'0 0.0
2017-Oct-10 05:30N 70°13' E 023°12'0 0.0
2017-Oct-10 05:00N 70°13' E 023°12'0 0.0
2017-Oct-10 04:30N 70°13' E 023°12'0 0.0
2017-Oct-10 04:00N 70°13' E 023°12'0 0.0
2017-Oct-10 03:30N 70°13' E 023°12'0 0.0
2017-Oct-10 03:00N 70°13' E 023°12'0 0.0
2017-Oct-10 02:30N 70°13' E 023°12'0 0.0
2017-Oct-10 02:00N 70°13' E 023°12'0 0.0
2017-Oct-10 01:30N 70°13' E 023°12'0 0.0
2017-Oct-10 01:00N 70°13' E 023°12'0 0.0
2017-Oct-10 00:30N 70°13' E 023°12'0 0.0
2017-Oct-10 00:00N 70°13' E 023°12'0 0.0
2017-Oct-09 23:30N 70°13' E 023°12'0 0.0
2017-Oct-09 23:00N 70°13' E 023°12'0 0.0
2017-Oct-09 22:30N 70°13' E 023°12'0 0.0
2017-Oct-09 22:00N 70°13' E 023°12'0 0.0
2017-Oct-09 21:30N 70°13' E 023°12'0 0.0
2017-Oct-09 21:00N 70°13' E 023°12'0 0.0
2017-Oct-09 20:30N 70°13' E 023°12'0 0.0
2017-Oct-09 20:00N 70°13' E 023°12'0 0.0
2017-Oct-09 19:30N 70°13' E 023°12'0 0.0
2017-Oct-09 19:00N 70°13' E 023°12'0 0.0
2017-Oct-09 18:30N 70°13' E 023°12'0 0.0
2017-Oct-09 18:00N 70°13' E 023°12'0 0.9
2017-Oct-09 17:29N 70°13' E 023°10'3 6.6
2017-Oct-09 17:00N 70°14' E 023°01'  

Dump ship's entire track history